sensor_id;sensor_type;location;lat;lon;timestamp;temperature;humidity
1297;DHT22;641;48.492;9.184;2024-01-06T00:01:29;5.80;99.90
1297;DHT22;641;48.492;9.184;2024-01-06T00:03:55;5.80;99.90
1297;DHT22;641;48.492;9.184;2024-01-06T00:06:20;5.80;99.90
1297;DHT22;641;48.492;9.184;2024-01-06T00:08:46;5.70;99.90
1297;DHT22;641;48.492;9.184;2024-01-06T00:11:12;5.60;99.90
1297;DHT22;641;48.492;9.184;2024-01-06T00:13:38;5.60;99.90
1297;DHT22;641;48.492;9.184;2024-01-06T00:16:03;5.60;99.90
1297;DHT22;641;48.492;9.184;2024-01-06T00:18:29;5.60;99.90
1297;DHT22;641;48.492;9.184;2024-01-06T00:20:55;5.60;99.90
1297;DHT22;641;48.492;9.184;2024-01-06T00:23:20;5.50;99.90
1297;DHT22;641;48.492;9.184;2024-01-06T00:25:46;5.60;99.90
1297;DHT22;641;48.492;9.184;2024-01-06T00:28:11;5.60;99.90
1297;DHT22;641;48.492;9.184;2024-01-06T00:30:37;5.60;99.90
1297;DHT22;641;48.492;9.184;2024-01-06T00:33:03;5.80;99.90
1297;DHT22;641;48.492;9.184;2024-01-06T00:35:28;5.80;99.90
1297;DHT22;641;48.492;9.184;2024-01-06T00:37:54;5.80;99.90
1297;DHT22;641;48.492;9.184;2024-01-06T00:40:20;5.70;99.90
1297;DHT22;641;48.492;9.184;2024-01-06T00:42:46;5.70;99.90
1297;DHT22;641;48.492;9.184;2024-01-06T00:45:11;5.70;99.90
1297;DHT22;641;48.492;9.184;2024-01-06T00:47:37;5.70;99.90
1297;DHT22;641;48.492;9.184;2024-01-06T00:50:03;5.60;99.90
1297;DHT22;641;48.492;9.184;2024-01-06T00:52:28;5.60;99.90
1297;DHT22;641;48.492;9.184;2024-01-06T00:54:54;5.60;99.90
1297;DHT22;641;48.492;9.184;2024-01-06T00:57:19;5.60;99.90
1297;DHT22;641;48.492;9.184;2024-01-06T00:59:49;5.60;99.90
1297;DHT22;641;48.492;9.184;2024-01-06T01:02:15;5.60;99.90
1297;DHT22;641;48.492;9.184;2024-01-06T01:04:40;5.60;99.90
1297;DHT22;641;48.492;9.184;2024-01-06T01:07:06;5.60;99.90
1297;DHT22;641;48.492;9.184;2024-01-06T01:09:31;5.50;99.90
1297;DHT22;641;48.492;9.184;2024-01-06T01:11:57;5.50;99.90
1297;DHT22;641;48.492;9.184;2024-01-06T01:14:23;5.50;99.90
1297;DHT22;641;48.492;9.184;2024-01-06T01:16:48;5.60;99.90
1297;DHT22;641;48.492;9.184;2024-01-06T01:19:14;5.50;99.90
1297;DHT22;641;48.492;9.184;2024-01-06T01:21:39;5.50;99.90
1297;DHT22;641;48.492;9.184;2024-01-06T01:24:05;5.40;99.90
1297;DHT22;641;48.492;9.184;2024-01-06T01:26:31;5.40;99.90
1297;DHT22;641;48.492;9.184;2024-01-06T01:28:56;5.40;99.90
1297;DHT22;641;48.492;9.184;2024-01-06T01:31:22;5.40;99.90
1297;DHT22;641;48.492;9.184;2024-01-06T01:33:47;5.40;99.90
1297;DHT22;641;48.492;9.184;2024-01-06T01:36:13;5.40;99.90
1297;DHT22;641;48.492;9.184;2024-01-06T01:38:38;5.40;99.90
1297;DHT22;641;48.492;9.184;2024-01-06T01:41:04;5.40;99.90
1297;DHT22;641;48.492;9.184;2024-01-06T01:43:29;5.30;99.90
1297;DHT22;641;48.492;9.184;2024-01-06T01:45:55;5.40;99.90
1297;DHT22;641;48.492;9.184;2024-01-06T01:48:22;5.40;99.90
1297;DHT22;641;48.492;9.184;2024-01-06T01:50:49;5.30;99.90
1297;DHT22;641;48.492;9.184;2024-01-06T01:53:15;5.30;99.90
1297;DHT22;641;48.492;9.184;2024-01-06T01:55:42;5.30;99.90
1297;DHT22;641;48.492;9.184;2024-01-06T01:58:10;5.30;99.90
1297;DHT22;641;48.492;9.184;2024-01-06T02:00:36;5.20;99.90
1297;DHT22;641;48.492;9.184;2024-01-06T02:03:04;5.20;99.90
1297;DHT22;641;48.492;9.184;2024-01-06T02:05:30;5.30;99.90
1297;DHT22;641;48.492;9.184;2024-01-06T02:07:56;5.20;99.90
1297;DHT22;641;48.492;9.184;2024-01-06T02:10:22;5.20;99.90
1297;DHT22;641;48.492;9.184;2024-01-06T02:12:48;5.20;99.90
1297;DHT22;641;48.492;9.184;2024-01-06T02:15:14;5.20;99.90
1297;DHT22;641;48.492;9.184;2024-01-06T02:17:40;5.10;99.90
1297;DHT22;641;48.492;9.184;2024-01-06T02:20:07;5.20;99.90
1297;DHT22;641;48.492;9.184;2024-01-06T02:22:34;5.20;99.90
1297;DHT22;641;48.492;9.184;2024-01-06T02:25:01;5.20;99.90
1297;DHT22;641;48.492;9.184;2024-01-06T02:27:27;5.20;99.90
1297;DHT22;641;48.492;9.184;2024-01-06T02:29:53;5.10;99.90
1297;DHT22;641;48.492;9.184;2024-01-06T02:32:18;5.10;99.90
1297;DHT22;641;48.492;9.184;2024-01-06T02:34:44;5.10;99.90
1297;DHT22;641;48.492;9.184;2024-01-06T02:37:09;5.10;99.90
1297;DHT22;641;48.492;9.184;2024-01-06T02:39:35;5.10;99.90
1297;DHT22;641;48.492;9.184;2024-01-06T02:42:00;5.10;99.90
1297;DHT22;641;48.492;9.184;2024-01-06T02:44:26;5.20;99.90
1297;DHT22;641;48.492;9.184;2024-01-06T02:46:51;5.20;99.90
1297;DHT22;641;48.492;9.184;2024-01-06T02:49:17;5.20;99.90
1297;DHT22;641;48.492;9.184;2024-01-06T02:51:43;5.20;99.90
1297;DHT22;641;48.492;9.184;2024-01-06T02:54:08;5.20;99.90
1297;DHT22;641;48.492;9.184;2024-01-06T02:56:34;5.20;99.90
1297;DHT22;641;48.492;9.184;2024-01-06T02:58:59;5.30;99.90
1297;DHT22;641;48.492;9.184;2024-01-06T03:01:25;5.20;99.90
1297;DHT22;641;48.492;9.184;2024-01-06T03:03:50;5.20;99.90
1297;DHT22;641;48.492;9.184;2024-01-06T03:06:16;5.20;99.90
1297;DHT22;641;48.492;9.184;2024-01-06T03:08:41;5.10;99.90
1297;DHT22;641;48.492;9.184;2024-01-06T03:11:07;5.10;99.90
1297;DHT22;641;48.492;9.184;2024-01-06T03:13:33;5.10;99.90
1297;DHT22;641;48.492;9.184;2024-01-06T03:16:03;5.20;99.90
1297;DHT22;641;48.492;9.184;2024-01-06T03:18:29;5.20;99.90
1297;DHT22;641;48.492;9.184;2024-01-06T03:20:55;5.10;99.90
1297;DHT22;641;48.492;9.184;2024-01-06T03:23:20;5.10;99.90
1297;DHT22;641;48.492;9.184;2024-01-06T03:25:46;5.10;99.90
1297;DHT22;641;48.492;9.184;2024-01-06T03:28:12;5.20;99.90
1297;DHT22;641;48.492;9.184;2024-01-06T03:30:37;5.10;99.90
1297;DHT22;641;48.492;9.184;2024-01-06T03:33:03;5.10;99.90
1297;DHT22;641;48.492;9.184;2024-01-06T03:35:28;5.00;99.90
1297;DHT22;641;48.492;9.184;2024-01-06T03:37:54;5.10;99.90
1297;DHT22;641;48.492;9.184;2024-01-06T03:40:20;5.00;99.90
1297;DHT22;641;48.492;9.184;2024-01-06T03:42:46;5.00;99.90
1297;DHT22;641;48.492;9.184;2024-01-06T03:45:11;5.10;99.90
1297;DHT22;641;48.492;9.184;2024-01-06T03:47:37;5.10;99.90
1297;DHT22;641;48.492;9.184;2024-01-06T03:50:02;5.00;99.90
1297;DHT22;641;48.492;9.184;2024-01-06T03:52:28;5.00;99.90
1297;DHT22;641;48.492;9.184;2024-01-06T03:54:53;5.30;99.90
1297;DHT22;641;48.492;9.184;2024-01-06T03:57:19;5.20;99.90
1297;DHT22;641;48.492;9.184;2024-01-06T03:59:44;5.10;99.90
1297;DHT22;641;48.492;9.184;2024-01-06T04:02:10;5.20;99.90
1297;DHT22;641;48.492;9.184;2024-01-06T04:04:35;5.10;99.90
1297;DHT22;641;48.492;9.184;2024-01-06T04:07:01;5.20;99.90
1297;DHT22;641;48.492;9.184;2024-01-06T04:09:27;5.10;99.90
1297;DHT22;641;48.492;9.184;2024-01-06T04:11:52;5.00;99.90
1297;DHT22;641;48.492;9.184;2024-01-06T04:14:18;5.00;99.90
1297;DHT22;641;48.492;9.184;2024-01-06T04:16:43;4.90;99.90
1297;DHT22;641;48.492;9.184;2024-01-06T04:19:09;5.00;99.90
1297;DHT22;641;48.492;9.184;2024-01-06T04:21:36;4.90;99.90
1297;DHT22;641;48.492;9.184;2024-01-06T04:24:02;4.90;99.90
1297;DHT22;641;48.492;9.184;2024-01-06T04:26:27;4.90;99.90
1297;DHT22;641;48.492;9.184;2024-01-06T04:28:53;4.80;99.90
1297;DHT22;641;48.492;9.184;2024-01-06T04:31:18;4.80;99.90
1297;DHT22;641;48.492;9.184;2024-01-06T04:33:44;4.80;99.90
1297;DHT22;641;48.492;9.184;2024-01-06T04:36:09;4.80;99.90
1297;DHT22;641;48.492;9.184;2024-01-06T04:38:35;4.80;99.90
1297;DHT22;641;48.492;9.184;2024-01-06T04:41:00;4.80;99.90
1297;DHT22;641;48.492;9.184;2024-01-06T04:43:26;4.80;99.90
1297;DHT22;641;48.492;9.184;2024-01-06T04:45:52;4.80;99.90
1297;DHT22;641;48.492;9.184;2024-01-06T04:48:17;4.70;99.90
1297;DHT22;641;48.492;9.184;2024-01-06T04:50:43;4.70;99.90
1297;DHT22;641;48.492;9.184;2024-01-06T04:53:08;4.70;99.90
1297;DHT22;641;48.492;9.184;2024-01-06T04:55:34;4.70;99.90
1297;DHT22;641;48.492;9.184;2024-01-06T04:57:59;4.70;99.90
1297;DHT22;641;48.492;9.184;2024-01-06T05:00:25;4.70;99.90
1297;DHT22;641;48.492;9.184;2024-01-06T05:02:51;4.70;99.90
1297;DHT22;641;48.492;9.184;2024-01-06T05:05:16;4.70;99.90
1297;DHT22;641;48.492;9.184;2024-01-06T05:07:42;4.70;99.90
1297;DHT22;641;48.492;9.184;2024-01-06T05:10:08;4.80;99.90
1297;DHT22;641;48.492;9.184;2024-01-06T05:12:34;4.80;99.90
1297;DHT22;641;48.492;9.184;2024-01-06T05:14:59;4.70;99.90
1297;DHT22;641;48.492;9.184;2024-01-06T05:17:25;4.80;99.90
1297;DHT22;641;48.492;9.184;2024-01-06T05:19:50;4.70;99.90
1297;DHT22;641;48.492;9.184;2024-01-06T05:22:16;4.70;99.90
1297;DHT22;641;48.492;9.184;2024-01-06T05:24:41;4.70;99.90
1297;DHT22;641;48.492;9.184;2024-01-06T05:27:07;4.70;99.90
1297;DHT22;641;48.492;9.184;2024-01-06T05:29:32;4.70;99.90
1297;DHT22;641;48.492;9.184;2024-01-06T05:31:58;4.70;99.90
1297;DHT22;641;48.492;9.184;2024-01-06T05:34:24;4.80;99.90
1297;DHT22;641;48.492;9.184;2024-01-06T05:36:49;4.70;99.90
1297;DHT22;641;48.492;9.184;2024-01-06T05:39:15;4.70;99.90
1297;DHT22;641;48.492;9.184;2024-01-06T05:41:40;4.70;99.90
1297;DHT22;641;48.492;9.184;2024-01-06T05:44:06;4.80;99.90
1297;DHT22;641;48.492;9.184;2024-01-06T05:46:33;4.80;99.90
1297;DHT22;641;48.492;9.184;2024-01-06T05:48:59;4.80;99.90
1297;DHT22;641;48.492;9.184;2024-01-06T05:51:25;4.70;99.90
1297;DHT22;641;48.492;9.184;2024-01-06T05:53:50;4.80;99.90
1297;DHT22;641;48.492;9.184;2024-01-06T05:56:26;4.80;99.90
1297;DHT22;641;48.492;9.184;2024-01-06T05:58:55;4.80;99.90
1297;DHT22;641;48.492;9.184;2024-01-06T06:01:21;4.90;99.90
1297;DHT22;641;48.492;9.184;2024-01-06T06:03:47;4.90;99.90
1297;DHT22;641;48.492;9.184;2024-01-06T06:06:12;4.80;99.90
1297;DHT22;641;48.492;9.184;2024-01-06T06:08:39;4.80;99.90
1297;DHT22;641;48.492;9.184;2024-01-06T06:11:05;4.90;99.90
1297;DHT22;641;48.492;9.184;2024-01-06T06:13:42;4.90;99.90
1297;DHT22;641;48.492;9.184;2024-01-06T06:16:11;4.80;99.90
1297;DHT22;641;48.492;9.184;2024-01-06T06:18:38;4.90;99.90
1297;DHT22;641;48.492;9.184;2024-01-06T06:21:03;5.00;99.90
1297;DHT22;641;48.492;9.184;2024-01-06T06:23:32;5.00;99.90
1297;DHT22;641;48.492;9.184;2024-01-06T06:25:58;4.90;99.90
1297;DHT22;641;48.492;9.184;2024-01-06T06:28:25;4.80;99.90
1297;DHT22;641;48.492;9.184;2024-01-06T06:30:50;4.80;99.90
1297;DHT22;641;48.492;9.184;2024-01-06T06:33:16;4.80;99.90
1297;DHT22;641;48.492;9.184;2024-01-06T06:35:42;4.90;99.90
1297;DHT22;641;48.492;9.184;2024-01-06T06:38:08;4.90;99.90
1297;DHT22;641;48.492;9.184;2024-01-06T06:40:33;4.90;99.90
1297;DHT22;641;48.492;9.184;2024-01-06T06:42:59;4.80;99.90
1297;DHT22;641;48.492;9.184;2024-01-06T06:45:24;4.80;99.90
1297;DHT22;641;48.492;9.184;2024-01-06T06:47:50;4.80;99.90
1297;DHT22;641;48.492;9.184;2024-01-06T06:50:16;4.80;99.90
1297;DHT22;641;48.492;9.184;2024-01-06T06:52:42;4.70;99.90
1297;DHT22;641;48.492;9.184;2024-01-06T06:55:08;4.70;99.90
1297;DHT22;641;48.492;9.184;2024-01-06T06:57:34;4.70;99.90
1297;DHT22;641;48.492;9.184;2024-01-06T06:59:59;4.60;99.90
1297;DHT22;641;48.492;9.184;2024-01-06T07:02:25;4.70;99.90
1297;DHT22;641;48.492;9.184;2024-01-06T07:04:51;4.80;99.90
1297;DHT22;641;48.492;9.184;2024-01-06T07:07:17;4.80;99.90
1297;DHT22;641;48.492;9.184;2024-01-06T07:09:42;4.80;99.90
1297;DHT22;641;48.492;9.184;2024-01-06T07:12:08;4.70;99.90
1297;DHT22;641;48.492;9.184;2024-01-06T07:14:33;4.80;99.90
1297;DHT22;641;48.492;9.184;2024-01-06T07:16:59;4.80;99.90
1297;DHT22;641;48.492;9.184;2024-01-06T07:19:25;4.70;99.90
1297;DHT22;641;48.492;9.184;2024-01-06T07:21:50;4.80;99.90
1297;DHT22;641;48.492;9.184;2024-01-06T07:24:16;4.70;99.90
1297;DHT22;641;48.492;9.184;2024-01-06T07:26:41;4.70;99.90
1297;DHT22;641;48.492;9.184;2024-01-06T07:29:07;4.80;99.90
1297;DHT22;641;48.492;9.184;2024-01-06T07:31:33;4.80;99.90
1297;DHT22;641;48.492;9.184;2024-01-06T07:33:59;4.80;99.90
1297;DHT22;641;48.492;9.184;2024-01-06T07:36:25;4.80;99.90
1297;DHT22;641;48.492;9.184;2024-01-06T07:38:50;4.80;99.90
1297;DHT22;641;48.492;9.184;2024-01-06T07:41:17;4.80;99.90
1297;DHT22;641;48.492;9.184;2024-01-06T07:43:43;4.70;99.90
1297;DHT22;641;48.492;9.184;2024-01-06T07:46:08;4.70;99.90
1297;DHT22;641;48.492;9.184;2024-01-06T07:48:35;4.70;99.90
1297;DHT22;641;48.492;9.184;2024-01-06T07:51:01;4.70;99.90
1297;DHT22;641;48.492;9.184;2024-01-06T07:53:28;4.70;99.90
1297;DHT22;641;48.492;9.184;2024-01-06T07:55:53;4.70;99.90
1297;DHT22;641;48.492;9.184;2024-01-06T07:58:19;4.60;99.90
1297;DHT22;641;48.492;9.184;2024-01-06T08:00:45;4.60;99.90
1297;DHT22;641;48.492;9.184;2024-01-06T08:03:11;4.50;99.90
1297;DHT22;641;48.492;9.184;2024-01-06T08:05:36;4.50;99.90
1297;DHT22;641;48.492;9.184;2024-01-06T08:08:03;4.60;99.90
1297;DHT22;641;48.492;9.184;2024-01-06T08:10:29;4.60;99.90
1297;DHT22;641;48.492;9.184;2024-01-06T08:12:55;4.70;99.90
1297;DHT22;641;48.492;9.184;2024-01-06T08:15:20;4.70;99.90
1297;DHT22;641;48.492;9.184;2024-01-06T08:17:46;4.80;99.90
1297;DHT22;641;48.492;9.184;2024-01-06T08:20:12;4.80;99.90
1297;DHT22;641;48.492;9.184;2024-01-06T08:22:38;4.90;99.90
1297;DHT22;641;48.492;9.184;2024-01-06T08:25:04;4.90;99.90
1297;DHT22;641;48.492;9.184;2024-01-06T08:27:31;5.20;99.90
1297;DHT22;641;48.492;9.184;2024-01-06T08:29:57;5.00;99.90
1297;DHT22;641;48.492;9.184;2024-01-06T08:32:22;4.80;99.90
1297;DHT22;641;48.492;9.184;2024-01-06T08:34:48;4.70;99.90
1297;DHT22;641;48.492;9.184;2024-01-06T08:37:14;4.70;99.90
1297;DHT22;641;48.492;9.184;2024-01-06T08:39:39;4.80;99.90
1297;DHT22;641;48.492;9.184;2024-01-06T08:42:05;4.80;99.90
1297;DHT22;641;48.492;9.184;2024-01-06T08:44:31;4.80;99.90
1297;DHT22;641;48.492;9.184;2024-01-06T08:46:56;4.90;99.90
1297;DHT22;641;48.492;9.184;2024-01-06T08:49:22;4.90;99.90
1297;DHT22;641;48.492;9.184;2024-01-06T08:51:47;5.00;99.90
1297;DHT22;641;48.492;9.184;2024-01-06T08:54:13;5.10;99.90
1297;DHT22;641;48.492;9.184;2024-01-06T08:56:39;5.10;99.90
1297;DHT22;641;48.492;9.184;2024-01-06T08:59:04;5.10;99.90
1297;DHT22;641;48.492;9.184;2024-01-06T09:01:30;5.20;99.90
1297;DHT22;641;48.492;9.184;2024-01-06T09:03:57;5.30;99.90
1297;DHT22;641;48.492;9.184;2024-01-06T09:06:23;5.30;99.90
1297;DHT22;641;48.492;9.184;2024-01-06T09:08:48;5.20;99.90
1297;DHT22;641;48.492;9.184;2024-01-06T09:11:14;5.40;99.90
1297;DHT22;641;48.492;9.184;2024-01-06T09:13:40;5.20;99.90
1297;DHT22;641;48.492;9.184;2024-01-06T09:16:06;5.00;99.90
1297;DHT22;641;48.492;9.184;2024-01-06T09:18:31;5.10;99.90
1297;DHT22;641;48.492;9.184;2024-01-06T09:20:57;5.10;99.90
1297;DHT22;641;48.492;9.184;2024-01-06T09:23:22;5.20;99.90
1297;DHT22;641;48.492;9.184;2024-01-06T09:25:48;5.10;99.90
1297;DHT22;641;48.492;9.184;2024-01-06T09:28:17;5.20;99.90
1297;DHT22;641;48.492;9.184;2024-01-06T09:30:43;5.20;99.90
1297;DHT22;641;48.492;9.184;2024-01-06T09:33:09;5.20;99.90
1297;DHT22;641;48.492;9.184;2024-01-06T09:35:34;5.30;99.90
1297;DHT22;641;48.492;9.184;2024-01-06T09:38:00;5.30;99.90
1297;DHT22;641;48.492;9.184;2024-01-06T09:40:26;5.30;99.90
1297;DHT22;641;48.492;9.184;2024-01-06T09:42:52;5.30;99.90
1297;DHT22;641;48.492;9.184;2024-01-06T09:45:19;5.30;99.90
1297;DHT22;641;48.492;9.184;2024-01-06T09:47:49;5.40;99.90
1297;DHT22;641;48.492;9.184;2024-01-06T09:50:18;5.40;99.90
1297;DHT22;641;48.492;9.184;2024-01-06T09:52:48;5.40;99.90
1297;DHT22;641;48.492;9.184;2024-01-06T09:55:29;5.40;99.90
1297;DHT22;641;48.492;9.184;2024-01-06T09:57:55;5.40;99.90
1297;DHT22;641;48.492;9.184;2024-01-06T10:00:21;5.40;99.90
1297;DHT22;641;48.492;9.184;2024-01-06T10:02:50;5.40;99.90
1297;DHT22;641;48.492;9.184;2024-01-06T10:05:20;5.50;99.90
1297;DHT22;641;48.492;9.184;2024-01-06T10:07:47;5.60;99.90
1297;DHT22;641;48.492;9.184;2024-01-06T10:10:13;5.50;99.90
1297;DHT22;641;48.492;9.184;2024-01-06T10:12:41;5.50;99.90
1297;DHT22;641;48.492;9.184;2024-01-06T10:15:08;5.60;99.90
1297;DHT22;641;48.492;9.184;2024-01-06T10:17:37;5.60;99.90
1297;DHT22;641;48.492;9.184;2024-01-06T10:20:06;5.60;99.90
1297;DHT22;641;48.492;9.184;2024-01-06T10:22:38;5.70;99.90
1297;DHT22;641;48.492;9.184;2024-01-06T10:25:06;5.70;99.90
1297;DHT22;641;48.492;9.184;2024-01-06T10:27:43;5.70;99.90
1297;DHT22;641;48.492;9.184;2024-01-06T10:30:09;5.70;99.90
1297;DHT22;641;48.492;9.184;2024-01-06T10:32:36;5.60;99.90
1297;DHT22;641;48.492;9.184;2024-01-06T10:35:03;5.50;99.90
1297;DHT22;641;48.492;9.184;2024-01-06T10:37:29;5.50;99.90
1297;DHT22;641;48.492;9.184;2024-01-06T10:40:15;5.50;99.90
1297;DHT22;641;48.492;9.184;2024-01-06T10:42:45;5.60;99.90
1297;DHT22;641;48.492;9.184;2024-01-06T10:45:12;5.70;99.90
1297;DHT22;641;48.492;9.184;2024-01-06T10:47:40;5.60;99.90
1297;DHT22;641;48.492;9.184;2024-01-06T10:50:06;5.60;99.90
1297;DHT22;641;48.492;9.184;2024-01-06T10:52:33;5.50;99.90
1297;DHT22;641;48.492;9.184;2024-01-06T10:55:01;5.50;99.90
1297;DHT22;641;48.492;9.184;2024-01-06T10:57:29;5.50;99.90
1297;DHT22;641;48.492;9.184;2024-01-06T10:59:58;5.60;99.90
1297;DHT22;641;48.492;9.184;2024-01-06T11:02:24;5.60;99.90
1297;DHT22;641;48.492;9.184;2024-01-06T11:04:50;5.70;99.90
1297;DHT22;641;48.492;9.184;2024-01-06T11:07:18;5.70;99.90
1297;DHT22;641;48.492;9.184;2024-01-06T11:09:57;5.90;99.90
1297;DHT22;641;48.492;9.184;2024-01-06T11:12:23;5.90;99.90
1297;DHT22;641;48.492;9.184;2024-01-06T11:14:51;5.80;99.90
1297;DHT22;641;48.492;9.184;2024-01-06T11:17:51;5.80;99.90
1297;DHT22;641;48.492;9.184;2024-01-06T11:20:35;5.70;99.90
1297;DHT22;641;48.492;9.184;2024-01-06T11:23:18;5.60;99.90
1297;DHT22;641;48.492;9.184;2024-01-06T11:25:45;5.60;99.90
1297;DHT22;641;48.492;9.184;2024-01-06T11:28:11;5.70;99.90
1297;DHT22;641;48.492;9.184;2024-01-06T11:30:37;5.70;99.90
1297;DHT22;641;48.492;9.184;2024-01-06T11:33:04;5.70;99.90
1297;DHT22;641;48.492;9.184;2024-01-06T11:35:30;5.60;99.90
1297;DHT22;641;48.492;9.184;2024-01-06T11:38:07;5.60;99.90
1297;DHT22;641;48.492;9.184;2024-01-06T11:40:34;5.70;99.90
1297;DHT22;641;48.492;9.184;2024-01-06T11:45:25;5.80;99.90
1297;DHT22;641;48.492;9.184;2024-01-06T11:47:58;5.80;99.90
1297;DHT22;641;48.492;9.184;2024-01-06T11:50:28;5.80;99.90
1297;DHT22;641;48.492;9.184;2024-01-06T11:52:54;5.90;99.90
1297;DHT22;641;48.492;9.184;2024-01-06T11:55:20;5.90;99.90
1297;DHT22;641;48.492;9.184;2024-01-06T11:57:46;5.80;99.90
1297;DHT22;641;48.492;9.184;2024-01-06T12:00:13;5.90;99.90
1297;DHT22;641;48.492;9.184;2024-01-06T12:02:40;5.90;99.90
1297;DHT22;641;48.492;9.184;2024-01-06T12:05:06;5.90;99.90
1297;DHT22;641;48.492;9.184;2024-01-06T12:07:37;5.80;99.90
1297;DHT22;641;48.492;9.184;2024-01-06T12:10:03;5.70;99.90
1297;DHT22;641;48.492;9.184;2024-01-06T12:12:29;5.80;99.90
1297;DHT22;641;48.492;9.184;2024-01-06T12:14:54;5.80;99.90
1297;DHT22;641;48.492;9.184;2024-01-06T12:17:21;5.90;99.90
1297;DHT22;641;48.492;9.184;2024-01-06T12:19:47;5.80;99.90
1297;DHT22;641;48.492;9.184;2024-01-06T12:22:14;5.80;99.90
1297;DHT22;641;48.492;9.184;2024-01-06T12:24:40;5.90;99.90
1297;DHT22;641;48.492;9.184;2024-01-06T12:27:08;5.80;99.90
1297;DHT22;641;48.492;9.184;2024-01-06T12:29:43;5.70;99.90
1297;DHT22;641;48.492;9.184;2024-01-06T12:32:10;5.80;99.90
1297;DHT22;641;48.492;9.184;2024-01-06T12:34:36;5.80;99.90
1297;DHT22;641;48.492;9.184;2024-01-06T12:37:02;5.80;99.90
1297;DHT22;641;48.492;9.184;2024-01-06T12:39:28;5.80;99.90
1297;DHT22;641;48.492;9.184;2024-01-06T12:41:55;5.70;99.90
1297;DHT22;641;48.492;9.184;2024-01-06T12:44:20;5.80;99.90
1297;DHT22;641;48.492;9.184;2024-01-06T12:46:47;5.70;99.90
1297;DHT22;641;48.492;9.184;2024-01-06T12:49:13;5.70;99.90
1297;DHT22;641;48.492;9.184;2024-01-06T12:51:38;5.70;99.90
1297;DHT22;641;48.492;9.184;2024-01-06T12:54:04;5.70;99.90
1297;DHT22;641;48.492;9.184;2024-01-06T12:56:30;5.80;99.90
1297;DHT22;641;48.492;9.184;2024-01-06T12:58:55;5.80;99.90
1297;DHT22;641;48.492;9.184;2024-01-06T13:01:21;5.80;99.90
1297;DHT22;641;48.492;9.184;2024-01-06T13:03:47;5.80;99.90
1297;DHT22;641;48.492;9.184;2024-01-06T13:06:13;5.80;99.90
1297;DHT22;641;48.492;9.184;2024-01-06T13:08:39;5.80;99.90
1297;DHT22;641;48.492;9.184;2024-01-06T13:11:05;5.80;99.90
1297;DHT22;641;48.492;9.184;2024-01-06T13:13:32;5.80;99.90
1297;DHT22;641;48.492;9.184;2024-01-06T13:15:57;5.70;99.90
1297;DHT22;641;48.492;9.184;2024-01-06T13:18:23;5.70;99.90
1297;DHT22;641;48.492;9.184;2024-01-06T13:20:49;5.70;99.90
1297;DHT22;641;48.492;9.184;2024-01-06T13:23:15;5.70;99.90
1297;DHT22;641;48.492;9.184;2024-01-06T13:25:41;5.70;99.90
1297;DHT22;641;48.492;9.184;2024-01-06T13:28:07;5.70;99.90
1297;DHT22;641;48.492;9.184;2024-01-06T13:30:33;5.80;99.90
1297;DHT22;641;48.492;9.184;2024-01-06T13:32:59;5.80;99.90
1297;DHT22;641;48.492;9.184;2024-01-06T13:35:25;5.80;99.90
1297;DHT22;641;48.492;9.184;2024-01-06T13:37:51;5.70;99.90
1297;DHT22;641;48.492;9.184;2024-01-06T13:40:18;5.80;99.90
1297;DHT22;641;48.492;9.184;2024-01-06T13:42:47;5.80;99.90
1297;DHT22;641;48.492;9.184;2024-01-06T13:45:13;5.80;99.90
1297;DHT22;641;48.492;9.184;2024-01-06T13:47:39;5.80;99.90
1297;DHT22;641;48.492;9.184;2024-01-06T13:50:08;5.80;99.90
1297;DHT22;641;48.492;9.184;2024-01-06T13:52:33;5.80;99.90
1297;DHT22;641;48.492;9.184;2024-01-06T13:55:00;5.80;99.90
1297;DHT22;641;48.492;9.184;2024-01-06T13:57:25;5.70;99.90
1297;DHT22;641;48.492;9.184;2024-01-06T13:59:51;5.70;99.90
1297;DHT22;641;48.492;9.184;2024-01-06T14:02:16;5.70;99.90
1297;DHT22;641;48.492;9.184;2024-01-06T14:04:43;5.60;99.90
1297;DHT22;641;48.492;9.184;2024-01-06T14:07:08;5.60;99.90
1297;DHT22;641;48.492;9.184;2024-01-06T14:09:35;5.70;99.90
1297;DHT22;641;48.492;9.184;2024-01-06T14:12:01;5.60;99.90
1297;DHT22;641;48.492;9.184;2024-01-06T14:14:26;5.60;99.90
1297;DHT22;641;48.492;9.184;2024-01-06T14:16:52;5.60;99.90
1297;DHT22;641;48.492;9.184;2024-01-06T14:19:18;5.60;99.90
1297;DHT22;641;48.492;9.184;2024-01-06T14:21:43;5.60;99.90
1297;DHT22;641;48.492;9.184;2024-01-06T14:24:09;5.50;99.90
1297;DHT22;641;48.492;9.184;2024-01-06T14:26:34;5.50;99.90
1297;DHT22;641;48.492;9.184;2024-01-06T14:29:00;5.50;99.90
1297;DHT22;641;48.492;9.184;2024-01-06T14:31:25;5.50;99.90
1297;DHT22;641;48.492;9.184;2024-01-06T14:33:54;5.50;99.90
1297;DHT22;641;48.492;9.184;2024-01-06T14:36:20;5.50;99.90
1297;DHT22;641;48.492;9.184;2024-01-06T14:38:46;5.60;99.90
1297;DHT22;641;48.492;9.184;2024-01-06T14:41:11;5.60;99.90
1297;DHT22;641;48.492;9.184;2024-01-06T14:43:37;5.50;99.90
1297;DHT22;641;48.492;9.184;2024-01-06T14:46:02;5.50;99.90
1297;DHT22;641;48.492;9.184;2024-01-06T14:48:28;5.60;99.90
1297;DHT22;641;48.492;9.184;2024-01-06T14:50:54;5.50;99.90
1297;DHT22;641;48.492;9.184;2024-01-06T14:53:19;5.50;99.90
1297;DHT22;641;48.492;9.184;2024-01-06T14:55:45;5.50;99.90
1297;DHT22;641;48.492;9.184;2024-01-06T14:58:10;5.50;99.90
1297;DHT22;641;48.492;9.184;2024-01-06T15:00:36;5.60;99.90
1297;DHT22;641;48.492;9.184;2024-01-06T15:03:01;5.60;99.90
1297;DHT22;641;48.492;9.184;2024-01-06T15:05:27;5.70;99.90
1297;DHT22;641;48.492;9.184;2024-01-06T15:07:56;5.70;99.90
1297;DHT22;641;48.492;9.184;2024-01-06T15:10:21;5.70;99.90
1297;DHT22;641;48.492;9.184;2024-01-06T15:12:47;5.70;99.90
1297;DHT22;641;48.492;9.184;2024-01-06T15:15:13;5.70;99.90
1297;DHT22;641;48.492;9.184;2024-01-06T15:17:39;5.70;99.90
1297;DHT22;641;48.492;9.184;2024-01-06T15:20:05;5.70;99.90
1297;DHT22;641;48.492;9.184;2024-01-06T15:22:31;5.70;99.90
1297;DHT22;641;48.492;9.184;2024-01-06T15:24:57;5.70;99.90
1297;DHT22;641;48.492;9.184;2024-01-06T15:27:22;5.70;99.90
1297;DHT22;641;48.492;9.184;2024-01-06T15:29:48;5.70;99.90
1297;DHT22;641;48.492;9.184;2024-01-06T15:32:14;5.60;99.90
1297;DHT22;641;48.492;9.184;2024-01-06T15:34:39;5.60;99.90
1297;DHT22;641;48.492;9.184;2024-01-06T15:37:05;5.70;99.90
1297;DHT22;641;48.492;9.184;2024-01-06T15:39:30;5.60;99.90
1297;DHT22;641;48.492;9.184;2024-01-06T15:41:56;5.60;99.90
1297;DHT22;641;48.492;9.184;2024-01-06T15:44:21;5.60;99.90
1297;DHT22;641;48.492;9.184;2024-01-06T15:46:47;5.60;99.90
1297;DHT22;641;48.492;9.184;2024-01-06T15:49:13;5.60;99.90
1297;DHT22;641;48.492;9.184;2024-01-06T15:51:38;5.60;99.90
1297;DHT22;641;48.492;9.184;2024-01-06T15:54:04;5.50;99.90
1297;DHT22;641;48.492;9.184;2024-01-06T15:56:30;5.50;99.90
1297;DHT22;641;48.492;9.184;2024-01-06T15:58:55;5.50;99.90
1297;DHT22;641;48.492;9.184;2024-01-06T16:01:25;5.60;99.90
1297;DHT22;641;48.492;9.184;2024-01-06T16:03:50;5.60;99.90
1297;DHT22;641;48.492;9.184;2024-01-06T16:06:16;5.60;99.90
1297;DHT22;641;48.492;9.184;2024-01-06T16:08:42;5.60;99.90
1297;DHT22;641;48.492;9.184;2024-01-06T16:11:08;5.50;99.90
1297;DHT22;641;48.492;9.184;2024-01-06T16:13:33;5.50;99.90
1297;DHT22;641;48.492;9.184;2024-01-06T16:16:00;5.50;99.90
1297;DHT22;641;48.492;9.184;2024-01-06T16:18:26;5.50;99.90
1297;DHT22;641;48.492;9.184;2024-01-06T16:20:52;5.40;99.90
1297;DHT22;641;48.492;9.184;2024-01-06T16:23:19;5.40;99.90
1297;DHT22;641;48.492;9.184;2024-01-06T16:25:48;5.40;99.90
1297;DHT22;641;48.492;9.184;2024-01-06T16:28:14;5.50;99.90
1297;DHT22;641;48.492;9.184;2024-01-06T16:30:40;5.40;99.90